createdAt,value
2023-05-14T00:05:49.283Z,4.40
2023-05-14T00:11:43.845Z,4.67
2023-05-14T00:17:37.936Z,3.80
2023-05-14T00:23:31.231Z,4.27
2023-05-14T00:29:25.840Z,4.60
2023-05-14T00:35:20.624Z,3.70
2023-05-14T00:41:13.879Z,4.63
2023-05-14T00:47:09.706Z,4.60
2023-05-14T00:53:03.150Z,4.23
2023-05-14T00:58:56.835Z,4.67
2023-05-14T01:04:52.512Z,4.60
2023-05-14T01:10:52.380Z,4.60
2023-05-14T01:16:47.356Z,4.40
2023-05-14T01:22:41.958Z,4.20
2023-05-14T01:28:38.927Z,4.37
2023-05-14T01:34:33.132Z,4.77
2023-05-14T01:40:29.110Z,4.40
2023-05-14T01:46:24.552Z,4.60
2023-05-14T01:52:21.345Z,4.80
2023-05-14T01:58:16.157Z,4.60
2023-05-14T02:04:10.398Z,4.87
2023-05-14T02:10:03.898Z,4.33
2023-05-14T02:15:59.312Z,5.40
2023-05-14T02:21:52.831Z,4.77
2023-05-14T02:27:46.247Z,4.77
2023-05-14T02:33:41.301Z,5.17
2023-05-14T02:39:34.787Z,4.73
2023-05-14T02:45:28.366Z,4.90
2023-05-14T02:51:23.310Z,5.07
2023-05-14T02:57:16.874Z,5.00
2023-05-14T03:03:10.484Z,4.73
2023-05-14T03:09:05.798Z,5.03
2023-05-14T03:14:59.319Z,5.13
2023-05-14T03:20:52.734Z,5.10
2023-05-14T03:26:47.512Z,5.70
2023-05-14T03:32:41.657Z,5.40
2023-05-14T03:38:35.086Z,5.03
2023-05-14T03:44:29.522Z,5.03
2023-05-14T03:50:25.407Z,5.17
2023-05-14T03:56:19.135Z,5.00
2023-05-14T04:02:14.397Z,4.97
2023-05-14T04:08:07.495Z,4.93
2023-05-14T04:14:00.500Z,5.53
2023-05-14T04:19:55.087Z,4.57
2023-05-14T04:25:48.090Z,5.20
2023-05-14T04:31:42.467Z,5.63
2023-05-14T04:37:36.857Z,5.23
2023-05-14T04:43:29.825Z,5.20
2023-05-14T04:49:22.816Z,5.53
2023-05-14T04:55:17.668Z,5.33
2023-05-14T05:01:10.702Z,5.03
2023-05-14T05:07:04.171Z,6.10
2023-05-14T05:12:58.461Z,5.00
2023-05-14T05:18:51.468Z,5.50
2023-05-14T05:24:44.457Z,5.50
2023-05-14T05:30:38.902Z,5.47
2023-05-14T05:36:32.408Z,5.30
2023-05-14T05:42:26.041Z,5.60
2023-05-14T05:48:20.921Z,5.63
2023-05-14T05:54:13.979Z,5.13
2023-05-14T06:00:13.502Z,5.50
2023-05-14T06:06:08.246Z,5.07
2023-05-14T06:12:01.253Z,6.10
2023-05-14T06:17:54.291Z,5.07
2023-05-14T06:23:48.884Z,4.77
2023-05-14T06:29:42.142Z,4.63
2023-05-14T06:35:35.529Z,4.20
2023-05-14T06:41:30.415Z,5.00
2023-05-14T06:47:23.546Z,4.67
2023-05-14T06:53:17.264Z,3.67
2023-05-14T06:59:11.606Z,5.00
2023-05-14T07:05:04.737Z,3.90
2023-05-14T07:10:58.257Z,3.80
2023-05-14T07:16:52.861Z,4.40
2023-05-14T07:22:45.857Z,4.90
2023-05-14T07:28:39.030Z,3.73
2023-05-14T07:34:33.613Z,4.10
2023-05-14T07:40:27.255Z,3.77
2023-05-14T07:46:20.277Z,4.00
2023-05-14T07:52:14.975Z,5.10
2023-05-14T07:58:07.975Z,3.50
2023-05-14T08:04:01.092Z,3.70
2023-05-14T08:09:55.986Z,3.40
2023-05-14T08:15:49.094Z,3.53
2023-05-14T08:21:42.090Z,3.27
2023-05-14T08:27:36.502Z,3.53
2023-05-14T08:33:29.493Z,3.30
2023-05-14T08:39:22.716Z,3.37
2023-05-14T08:45:20.359Z,3.10
2023-05-14T08:51:14.021Z,3.13
2023-05-14T08:57:10.586Z,3.27
2023-05-14T09:03:06.708Z,2.80
2023-05-14T09:08:59.785Z,2.80
2023-05-14T09:14:52.998Z,2.70
2023-05-14T09:20:48.513Z,3.20
2023-05-14T09:26:41.513Z,3.17
2023-05-14T09:32:39.147Z,2.87
2023-05-14T09:38:34.379Z,2.70
2023-05-14T09:44:28.298Z,2.60
2023-05-14T09:50:21.799Z,2.40
2023-05-14T09:56:16.662Z,2.30
2023-05-14T10:02:17.098Z,2.60
2023-05-14T10:08:14.628Z,2.70
2023-05-14T10:14:18.114Z,2.93
2023-05-14T10:20:16.563Z,2.93
2023-05-14T10:26:10.144Z,3.13
2023-05-14T10:32:09.358Z,2.90
2023-05-14T10:38:02.599Z,2.83
2023-05-14T10:43:59.430Z,2.97
2023-05-14T10:49:56.520Z,2.80
2023-05-14T10:55:49.898Z,2.70
2023-05-14T11:01:43.360Z,2.57
2023-05-14T11:07:40.144Z,3.20
2023-05-14T11:13:34.467Z,3.00
2023-05-14T11:19:27.685Z,2.80
2023-05-14T11:25:22.983Z,2.87
2023-05-14T11:31:16.001Z,3.23
2023-05-14T11:37:10.312Z,3.10
2023-05-14T11:43:05.303Z,3.27
2023-05-14T11:48:58.536Z,3.20
2023-05-14T11:54:51.772Z,3.60
2023-05-14T12:00:47.788Z,2.90
2023-05-14T12:06:41.217Z,3.33
2023-05-14T12:12:37.393Z,3.20
2023-05-14T12:18:33.407Z,3.37
2023-05-14T12:24:27.138Z,3.10
2023-05-14T12:30:21.645Z,3.07
2023-05-14T12:36:21.932Z,3.03
2023-05-14T12:42:16.176Z,3.17
2023-05-14T12:48:09.410Z,3.07
2023-05-14T12:54:04.089Z,2.67
2023-05-14T12:59:57.968Z,2.63
2023-05-14T13:05:52.144Z,3.10
2023-05-14T13:11:46.500Z,2.97
2023-05-14T13:17:41.516Z,3.53
2023-05-14T13:23:34.783Z,3.00
2023-05-14T13:29:31.759Z,2.90
2023-05-14T13:35:25.355Z,3.33
2023-05-14T13:41:18.772Z,2.80
2023-05-14T13:47:13.449Z,3.07
2023-05-14T13:53:06.629Z,2.53
2023-05-14T13:58:59.826Z,4.53
2023-05-14T14:04:54.476Z,2.60
2023-05-14T14:10:47.702Z,2.80
2023-05-14T14:16:41.045Z,2.70
2023-05-14T14:22:35.727Z,2.70
2023-05-14T14:28:28.933Z,3.30
2023-05-14T14:34:22.138Z,2.70
2023-05-14T14:40:17.075Z,2.97
2023-05-14T14:46:10.412Z,2.90
2023-05-14T14:52:03.570Z,2.70
2023-05-14T14:57:58.111Z,2.27
2023-05-14T15:03:51.410Z,2.60
2023-05-14T15:09:44.676Z,2.70
2023-05-14T15:15:39.003Z,2.93
2023-05-14T15:21:32.633Z,3.07
2023-05-14T15:27:26.159Z,3.17
2023-05-14T15:33:20.826Z,2.57
2023-05-14T15:39:13.996Z,3.37
2023-05-14T15:45:07.793Z,3.10
2023-05-14T15:51:02.533Z,2.60
2023-05-14T15:56:57.279Z,2.87
2023-05-14T16:02:50.612Z,2.70
2023-05-14T16:08:45.734Z,3.00
2023-05-14T16:14:40.547Z,2.97
2023-05-14T16:20:34.965Z,2.80
2023-05-14T16:26:29.303Z,3.20
2023-05-14T16:32:22.894Z,2.90
2023-05-14T16:38:16.048Z,3.40
2023-05-14T16:44:10.578Z,3.27
2023-05-14T16:50:03.736Z,3.50
2023-05-14T16:55:56.763Z,3.00
2023-05-14T17:01:51.400Z,3.60
2023-05-14T17:07:44.625Z,3.10
2023-05-14T17:13:38.030Z,3.17
2023-05-14T17:19:32.562Z,3.67
2023-05-14T17:25:26.680Z,2.70
2023-05-14T17:31:20.082Z,3.47
2023-05-14T17:37:14.672Z,3.30
2023-05-14T17:43:08.630Z,3.20
2023-05-14T17:49:01.929Z,3.57
2023-05-14T17:54:56.522Z,3.73
2023-05-14T18:00:49.769Z,3.33
2023-05-14T18:06:42.962Z,3.67
2023-05-14T18:12:37.543Z,3.63
2023-05-14T18:18:30.817Z,2.93
2023-05-14T18:24:23.922Z,2.73
2023-05-14T18:30:18.436Z,3.20
2023-05-14T18:36:11.644Z,3.53
2023-05-14T18:42:05.099Z,3.67
2023-05-14T18:47:59.587Z,3.50
2023-05-14T18:53:52.855Z,3.40
2023-05-14T18:59:45.875Z,3.13
2023-05-14T19:05:40.189Z,3.30
2023-05-14T19:11:33.431Z,3.57
2023-05-14T19:17:26.858Z,3.93
2023-05-14T19:23:21.251Z,4.50
2023-05-14T19:29:14.294Z,4.13
2023-05-14T19:35:07.913Z,3.40
2023-05-14T19:41:02.400Z,3.70
2023-05-14T19:46:55.652Z,3.90
2023-05-14T19:52:48.827Z,4.07
2023-05-14T19:58:43.269Z,5.23
2023-05-14T20:04:39.889Z,4.47
2023-05-14T20:10:33.193Z,3.60
2023-05-14T20:16:28.965Z,3.43
2023-05-14T20:22:22.153Z,3.87
2023-05-14T20:28:15.393Z,3.80
2023-05-14T20:34:09.880Z,3.60
2023-05-14T20:40:04.776Z,4.00
2023-05-14T20:45:59.388Z,3.90
2023-05-14T20:51:53.974Z,3.83
2023-05-14T20:57:47.187Z,3.50
2023-05-14T21:03:40.549Z,3.70
2023-05-14T21:09:34.971Z,4.27
2023-05-14T21:15:30.293Z,4.03
2023-05-14T21:21:23.300Z,3.67
2023-05-14T21:27:17.983Z,4.03
2023-05-14T21:33:11.238Z,4.40
2023-05-14T21:39:04.328Z,4.50
2023-05-14T21:44:58.683Z,4.30
2023-05-14T21:50:51.742Z,3.80
2023-05-14T21:56:44.994Z,4.43
2023-05-14T22:02:43.068Z,4.27
2023-05-14T22:08:36.145Z,4.27
2023-05-14T22:14:29.744Z,4.53
2023-05-14T22:20:24.248Z,4.10
2023-05-14T22:26:17.544Z,4.20
2023-05-14T22:32:10.571Z,4.53
2023-05-14T22:38:05.112Z,4.50
2023-05-14T22:43:58.057Z,4.47
2023-05-14T22:49:51.223Z,4.60
2023-05-14T22:55:45.910Z,4.30
2023-05-14T23:01:39.516Z,4.77
2023-05-14T23:07:32.573Z,4.17
2023-05-14T23:13:27.090Z,4.47
2023-05-14T23:19:20.168Z,4.47
2023-05-14T23:25:13.480Z,5.60
2023-05-14T23:31:07.903Z,5.53
2023-05-14T23:37:01.049Z,5.70
2023-05-14T23:42:54.177Z,5.97
2023-05-14T23:48:48.819Z,5.50
2023-05-14T23:54:42.047Z,5.27
